Pagrindinis puslapis
METAR-TAF:

METAR-TAF

Oro uostai :

Rivnė, Ukraina

platuma: 50-35N, ilguma: 026-08E, Aukštis: 231 m

Dabartinis oras

Ataskaita buvo paskelbta 13 valandos ir 2 minutes, ne 15:00 UTC
Vėjas 6 kt iš Rytų/Pietryčių
Temperatūra 10°C
Drėgmė 82%
Slėgis 1016 hPa
Matomumas 10 km arba daugiau
nėra debesų žemiau 1500 m ir nėra kamuolinių lietaus debesų

METAR: UKLR 121500Z 11003MPS CAVOK 10/07 Q1016 R11/090070 NOSIG

Laikas: 06:02 (04:02 UTC)

Prognozė

Ataskaita buvo paskelbta 16 valandos ir 58 minutes, ne 11:04 UTC
Prognozė galioja nuo 12 metu 12 UTC su 12 metu 21 UTC
Vėjas 14 kt iš Pietryčių su gūsio iki 23 kt
Matomumas 10 km arba daugiau
Su prošvaistėmis ne aukštis 1700 ft
Laikinai
nuo 12 metu 12 UTC su 12 metu 21 UTC
Vėjas 17 kt iš Pietų su gūsio iki 27 kt

TAF: UKLR 121104Z 1212/1221 13007G12MPS 9999 BKN017 TEMPO 1212/1221 17009G14MPS

Orai ataskaitas ir orų prognozės (METAR, TAF).

turimą stotys yra geltonos ir raudonos taškus žemėlapyje.

Perkelti pele per norėdami pamatyti stoties vardą.

Tada spustelėkite, norėdami matyti oro stebėjimo ir prognozės.

Norėdami pakeisti žemėlapį: spustelėkite ant žalios mygtukų su juodo kryžiaus žemyn,; žalią mygtuką su brūkšneliu, jei norite nutolinti; arba žalių rodyklių gretimoms žemėlapius.


METAR-TAF: